sensor_id;sensor_type;location;lat;lon;timestamp;pressure;altitude;pressure_sealevel;temperature;humidity
56270;BME280;42176;43.240;27.880;2022-12-20T00:02:17;102455.47;;;-2.53;100.00
56270;BME280;42176;43.240;27.880;2022-12-20T00:04:42;102441.00;;;-2.11;100.00
56270;BME280;42176;43.240;27.880;2022-12-20T00:07:08;102456.81;;;-1.94;100.00
56270;BME280;42176;43.240;27.880;2022-12-20T00:09:33;102440.31;;;-2.47;100.00
56270;BME280;42176;43.240;27.880;2022-12-20T00:11:58;102445.84;;;-2.68;100.00
56270;BME280;42176;43.240;27.880;2022-12-20T00:14:24;102461.72;;;-2.38;100.00
56270;BME280;42176;43.240;27.880;2022-12-20T00:16:49;102448.22;;;-1.93;100.00
56270;BME280;42176;43.240;27.880;2022-12-20T00:19:15;102462.03;;;-1.94;100.00
56270;BME280;42176;43.240;27.880;2022-12-20T00:21:40;102436.91;;;-2.46;100.00
56270;BME280;42176;43.240;27.880;2022-12-20T00:24:06;102453.97;;;-2.75;100.00
56270;BME280;42176;43.240;27.880;2022-12-20T00:26:33;102445.16;;;-2.26;100.00
56270;BME280;42176;43.240;27.880;2022-12-20T00:29:00;102448.31;;;-1.92;100.00
56270;BME280;42176;43.240;27.880;2022-12-20T00:31:28;102447.94;;;-1.71;100.00
56270;BME280;42176;43.240;27.880;2022-12-20T00:33:55;102446.16;;;-2.38;100.00
56270;BME280;42176;43.240;27.880;2022-12-20T00:36:22;102451.69;;;-2.70;100.00
56270;BME280;42176;43.240;27.880;2022-12-20T00:38:50;102449.38;;;-2.15;100.00
56270;BME280;42176;43.240;27.880;2022-12-20T00:41:19;102442.63;;;-1.86;100.00
56270;BME280;42176;43.240;27.880;2022-12-20T00:43:45;102447.44;;;-1.65;100.00
56270;BME280;42176;43.240;27.880;2022-12-20T00:46:12;102431.97;;;-2.30;100.00
56270;BME280;42176;43.240;27.880;2022-12-20T00:48:38;102432.41;;;-2.49;100.00
56270;BME280;42176;43.240;27.880;2022-12-20T00:51:07;102407.19;;;-2.24;100.00
56270;BME280;42176;43.240;27.880;2022-12-20T00:53:34;102417.44;;;-1.74;100.00
56270;BME280;42176;43.240;27.880;2022-12-20T00:56:00;102403.31;;;-1.77;100.00
56270;BME280;42176;43.240;27.880;2022-12-20T00:58:26;102408.78;;;-2.26;100.00
56270;BME280;42176;43.240;27.880;2022-12-20T01:00:52;102406.88;;;-2.42;100.00
56270;BME280;42176;43.240;27.880;2022-12-20T01:03:18;102388.00;;;-1.86;100.00
56270;BME280;42176;43.240;27.880;2022-12-20T01:08:20;102396.00;;;-2.10;100.00
56270;BME280;42176;43.240;27.880;2022-12-20T01:10:46;102394.41;;;-2.35;100.00
56270;BME280;42176;43.240;27.880;2022-12-20T01:13:12;102403.59;;;-2.26;100.00
56270;BME280;42176;43.240;27.880;2022-12-20T01:15:37;102400.22;;;-1.85;100.00
56270;BME280;42176;43.240;27.880;2022-12-20T01:18:03;102384.94;;;-1.39;100.00
56270;BME280;42176;43.240;27.880;2022-12-20T01:20:28;102390.81;;;-1.96;100.00
56270;BME280;42176;43.240;27.880;2022-12-20T01:22:54;102378.19;;;-2.44;100.00
56270;BME280;42176;43.240;27.880;2022-12-20T01:25:20;102382.72;;;-2.28;100.00
56270;BME280;42176;43.240;27.880;2022-12-20T01:27:45;102377.44;;;-1.76;100.00
56270;BME280;42176;43.240;27.880;2022-12-20T01:30:11;102381.91;;;-1.60;100.00
56270;BME280;42176;43.240;27.880;2022-12-20T01:32:36;102374.00;;;-2.28;100.00
56270;BME280;42176;43.240;27.880;2022-12-20T01:35:02;102383.66;;;-2.53;100.00
56270;BME280;42176;43.240;27.880;2022-12-20T01:37:27;102386.84;;;-2.05;100.00
56270;BME280;42176;43.240;27.880;2022-12-20T01:39:53;102358.88;;;-1.54;100.00
56270;BME280;42176;43.240;27.880;2022-12-20T01:42:19;102377.44;;;-2.03;100.00
56270;BME280;42176;43.240;27.880;2022-12-20T01:47:11;102355.72;;;-2.30;100.00
56270;BME280;42176;43.240;27.880;2022-12-20T01:49:39;102350.94;;;-1.97;100.00
56270;BME280;42176;43.240;27.880;2022-12-20T01:52:37;102360.56;;;-1.41;100.00
56270;BME280;42176;43.240;27.880;2022-12-20T01:55:10;102350.63;;;-2.15;100.00
56270;BME280;42176;43.240;27.880;2022-12-20T01:57:50;102358.09;;;-2.47;100.00
56270;BME280;42176;43.240;27.880;2022-12-20T02:00:18;102361.94;;;-2.15;100.00
56270;BME280;42176;43.240;27.880;2022-12-20T02:02:45;102336.56;;;-1.50;100.00
56270;BME280;42176;43.240;27.880;2022-12-20T02:05:12;102331.66;;;-1.87;100.00
56270;BME280;42176;43.240;27.880;2022-12-20T02:07:39;102338.84;;;-2.37;100.00
56270;BME280;42176;43.240;27.880;2022-12-20T02:10:08;102314.00;;;-2.72;100.00
56270;BME280;42176;43.240;27.880;2022-12-20T02:12:43;102325.84;;;-1.96;100.00
56270;BME280;42176;43.240;27.880;2022-12-20T02:23:34;102322.22;;;-1.72;100.00
56270;BME280;42176;43.240;27.880;2022-12-20T02:31:28;102315.66;;;-2.20;100.00
56270;BME280;42176;43.240;27.880;2022-12-20T02:33:57;102313.00;;;-1.80;100.00
56270;BME280;42176;43.240;27.880;2022-12-20T02:36:23;102298.47;;;-1.49;100.00
56270;BME280;42176;43.240;27.880;2022-12-20T02:38:50;102312.44;;;-2.16;100.00
56270;BME280;42176;43.240;27.880;2022-12-20T02:41:29;102326.44;;;-2.41;100.00
56270;BME280;42176;43.240;27.880;2022-12-20T02:44:01;102312.25;;;-2.19;100.00
56270;BME280;42176;43.240;27.880;2022-12-20T02:46:48;102310.19;;;-1.70;100.00
56270;BME280;42176;43.240;27.880;2022-12-20T02:49:16;102319.69;;;-1.28;100.00
56270;BME280;42176;43.240;27.880;2022-12-20T02:51:46;102296.13;;;-1.87;100.00
56270;BME280;42176;43.240;27.880;2022-12-20T02:54:14;102325.44;;;-2.16;100.00
56270;BME280;42176;43.240;27.880;2022-12-20T02:56:58;102300.09;;;-1.78;100.00
56270;BME280;42176;43.240;27.880;2022-12-20T02:59:33;102301.22;;;-1.18;100.00
56270;BME280;42176;43.240;27.880;2022-12-20T03:02:01;102287.22;;;-1.77;100.00
56270;BME280;42176;43.240;27.880;2022-12-20T03:04:29;102303.03;;;-2.14;100.00
56270;BME280;42176;43.240;27.880;2022-12-20T03:07:00;102295.84;;;-1.91;100.00
56270;BME280;42176;43.240;27.880;2022-12-20T03:09:27;102306.72;;;-1.42;100.00
56270;BME280;42176;43.240;27.880;2022-12-20T03:11:53;102315.91;;;-1.33;100.00
56270;BME280;42176;43.240;27.880;2022-12-20T03:14:18;102295.63;;;-1.94;100.00
56270;BME280;42176;43.240;27.880;2022-12-20T03:16:44;102304.66;;;-2.03;100.00
56270;BME280;42176;43.240;27.880;2022-12-20T03:19:09;102282.25;;;-1.59;100.00
56270;BME280;42176;43.240;27.880;2022-12-20T03:21:35;102286.59;;;-1.16;100.00
56270;BME280;42176;43.240;27.880;2022-12-20T03:24:00;102289.78;;;-1.63;100.00
56270;BME280;42176;43.240;27.880;2022-12-20T03:26:26;102296.16;;;-2.00;100.00
56270;BME280;42176;43.240;27.880;2022-12-20T03:28:51;102289.81;;;-1.77;100.00
56270;BME280;42176;43.240;27.880;2022-12-20T03:31:17;102299.88;;;-1.26;100.00
56270;BME280;42176;43.240;27.880;2022-12-20T03:33:42;102305.09;;;-1.40;100.00
56270;BME280;42176;43.240;27.880;2022-12-20T03:36:08;102298.31;;;-1.93;100.00
56270;BME280;42176;43.240;27.880;2022-12-20T03:38:33;102289.06;;;-2.03;100.00
56270;BME280;42176;43.240;27.880;2022-12-20T03:40:58;102286.94;;;-1.53;100.00
56270;BME280;42176;43.240;27.880;2022-12-20T03:43:24;102305.22;;;-1.10;100.00
56270;BME280;42176;43.240;27.880;2022-12-20T03:45:49;102289.63;;;-1.80;100.00
56270;BME280;42176;43.240;27.880;2022-12-20T03:48:15;102296.38;;;-2.10;100.00
56270;BME280;42176;43.240;27.880;2022-12-20T03:50:40;102305.97;;;-1.67;100.00
56270;BME280;42176;43.240;27.880;2022-12-20T03:53:06;102282.78;;;-0.93;100.00
56270;BME280;42176;43.240;27.880;2022-12-20T03:55:31;102290.97;;;-1.58;100.00
56270;BME280;42176;43.240;27.880;2022-12-20T03:57:57;102280.34;;;-2.03;100.00
56270;BME280;42176;43.240;27.880;2022-12-20T04:00:22;102287.56;;;-1.71;100.00
56270;BME280;42176;43.240;27.880;2022-12-20T04:02:48;102287.28;;;-1.33;100.00
56270;BME280;42176;43.240;27.880;2022-12-20T04:05:13;102283.50;;;-0.80;100.00
56270;BME280;42176;43.240;27.880;2022-12-20T04:07:39;102280.22;;;-1.21;100.00
56270;BME280;42176;43.240;27.880;2022-12-20T04:10:05;102283.03;;;-1.88;100.00
56270;BME280;42176;43.240;27.880;2022-12-20T04:12:30;102290.66;;;-0.91;100.00
56270;BME280;42176;43.240;27.880;2022-12-20T04:14:56;102276.63;;;0.13;100.00
56270;BME280;42176;43.240;27.880;2022-12-20T04:17:21;102291.66;;;-1.04;95.00
56270;BME280;42176;43.240;27.880;2022-12-20T04:19:47;102292.75;;;-2.39;100.00
56270;BME280;42176;43.240;27.880;2022-12-20T04:22:12;102294.13;;;-1.91;100.00
56270;BME280;42176;43.240;27.880;2022-12-20T04:24:38;102301.13;;;-1.48;100.00
56270;BME280;42176;43.240;27.880;2022-12-20T04:27:03;102301.94;;;-1.20;100.00
56270;BME280;42176;43.240;27.880;2022-12-20T04:29:29;102295.53;;;-0.67;100.00
56270;BME280;42176;43.240;27.880;2022-12-20T04:31:54;102297.28;;;-1.26;100.00
56270;BME280;42176;43.240;27.880;2022-12-20T04:34:20;102295.22;;;-1.74;100.00
56270;BME280;42176;43.240;27.880;2022-12-20T04:36:45;102292.34;;;-1.50;100.00
56270;BME280;42176;43.240;27.880;2022-12-20T04:39:11;102300.19;;;-0.92;100.00
56270;BME280;42176;43.240;27.880;2022-12-20T04:41:37;102296.13;;;-1.45;100.00
56270;BME280;42176;43.240;27.880;2022-12-20T04:44:02;102296.03;;;-1.88;100.00
56270;BME280;42176;43.240;27.880;2022-12-20T04:46:28;102292.44;;;-1.90;100.00
56270;BME280;42176;43.240;27.880;2022-12-20T04:48:53;102294.53;;;-1.43;100.00
56270;BME280;42176;43.240;27.880;2022-12-20T04:51:19;102292.13;;;-0.96;100.00
56270;BME280;42176;43.240;27.880;2022-12-20T04:53:44;102292.72;;;-1.44;100.00
56270;BME280;42176;43.240;27.880;2022-12-20T04:56:18;102288.47;;;-2.12;100.00
56270;BME280;42176;43.240;27.880;2022-12-20T04:58:45;102276.56;;;-2.22;100.00
56270;BME280;42176;43.240;27.880;2022-12-20T05:01:10;102296.00;;;-1.75;100.00
56270;BME280;42176;43.240;27.880;2022-12-20T05:03:36;102285.78;;;-1.15;100.00
56270;BME280;42176;43.240;27.880;2022-12-20T05:06:02;102293.66;;;-1.28;100.00
56270;BME280;42176;43.240;27.880;2022-12-20T05:08:27;102279.97;;;-1.96;100.00
56270;BME280;42176;43.240;27.880;2022-12-20T05:10:53;102283.06;;;-2.15;100.00
56270;BME280;42176;43.240;27.880;2022-12-20T05:13:18;102287.41;;;-1.74;100.00
56270;BME280;42176;43.240;27.880;2022-12-20T05:15:44;102284.00;;;-1.16;100.00
56270;BME280;42176;43.240;27.880;2022-12-20T05:18:10;102277.63;;;-1.78;100.00
56270;BME280;42176;43.240;27.880;2022-12-20T05:20:35;102292.28;;;-2.20;100.00
56270;BME280;42176;43.240;27.880;2022-12-20T05:23:01;102288.47;;;-2.12;100.00
56270;BME280;42176;43.240;27.880;2022-12-20T05:25:47;102287.78;;;-1.67;100.00
56270;BME280;42176;43.240;27.880;2022-12-20T05:28:31;102284.00;;;-1.73;100.00
56270;BME280;42176;43.240;27.880;2022-12-20T05:30:57;102300.25;;;-2.17;100.00
56270;BME280;42176;43.240;27.880;2022-12-20T05:33:23;102303.56;;;-2.33;100.00
56270;BME280;42176;43.240;27.880;2022-12-20T05:35:49;102298.50;;;-1.76;100.00
56270;BME280;42176;43.240;27.880;2022-12-20T05:38:14;102283.19;;;-1.43;100.00
56270;BME280;42176;43.240;27.880;2022-12-20T05:40:40;102281.53;;;-1.43;100.00
56270;BME280;42176;43.240;27.880;2022-12-20T05:43:05;102299.47;;;-2.03;100.00
56270;BME280;42176;43.240;27.880;2022-12-20T05:45:31;102288.75;;;-2.21;100.00
56270;BME280;42176;43.240;27.880;2022-12-20T05:47:57;102301.00;;;-1.78;100.00
56270;BME280;42176;43.240;27.880;2022-12-20T05:50:23;102290.47;;;-1.38;100.00
56270;BME280;42176;43.240;27.880;2022-12-20T05:52:49;102285.72;;;-1.45;100.00
56270;BME280;42176;43.240;27.880;2022-12-20T05:55:14;102296.25;;;-1.99;100.00
56270;BME280;42176;43.240;27.880;2022-12-20T05:57:40;102301.75;;;-2.07;100.00
56270;BME280;42176;43.240;27.880;2022-12-20T06:00:08;102288.72;;;-1.52;100.00
56270;BME280;42176;43.240;27.880;2022-12-20T06:02:33;102291.75;;;-0.42;100.00
56270;BME280;42176;43.240;27.880;2022-12-20T06:04:59;102308.66;;;-0.81;98.33
56270;BME280;42176;43.240;27.880;2022-12-20T06:07:24;102302.28;;;-1.29;100.00
56270;BME280;42176;43.240;27.880;2022-12-20T06:09:50;102316.75;;;-1.48;100.00
56270;BME280;42176;43.240;27.880;2022-12-20T06:12:16;102311.81;;;-1.15;100.00
56270;BME280;42176;43.240;27.880;2022-12-20T06:14:41;102315.13;;;-0.59;99.80
56270;BME280;42176;43.240;27.880;2022-12-20T06:17:07;102292.81;;;-1.42;100.00
56270;BME280;42176;43.240;27.880;2022-12-20T06:19:32;102301.38;;;-2.13;100.00
56270;BME280;42176;43.240;27.880;2022-12-20T06:21:58;102294.41;;;-1.86;100.00
56270;BME280;42176;43.240;27.880;2022-12-20T06:24:25;102317.50;;;-1.35;100.00
56270;BME280;42176;43.240;27.880;2022-12-20T06:26:51;102300.91;;;-0.94;100.00
56270;BME280;42176;43.240;27.880;2022-12-20T06:29:17;102290.78;;;-0.74;100.00
56270;BME280;42176;43.240;27.880;2022-12-20T06:31:45;102289.38;;;-1.56;100.00
56270;BME280;42176;43.240;27.880;2022-12-20T06:34:10;102284.22;;;-1.83;100.00
56270;BME280;42176;43.240;27.880;2022-12-20T06:36:36;102306.69;;;-1.28;100.00
56270;BME280;42176;43.240;27.880;2022-12-20T06:39:01;102305.06;;;-0.83;100.00
56270;BME280;42176;43.240;27.880;2022-12-20T06:41:27;102300.75;;;-1.54;100.00
56270;BME280;42176;43.240;27.880;2022-12-20T06:43:53;102308.63;;;-1.81;100.00
56270;BME280;42176;43.240;27.880;2022-12-20T06:46:18;102322.34;;;-1.42;100.00
56270;BME280;42176;43.240;27.880;2022-12-20T06:48:44;102314.03;;;-0.78;100.00
56270;BME280;42176;43.240;27.880;2022-12-20T06:51:10;102309.53;;;-0.95;100.00
56270;BME280;42176;43.240;27.880;2022-12-20T06:53:35;102301.97;;;-1.62;100.00
56270;BME280;42176;43.240;27.880;2022-12-20T06:56:01;102303.59;;;-1.64;100.00
56270;BME280;42176;43.240;27.880;2022-12-20T06:58:27;102306.81;;;-0.97;100.00
56270;BME280;42176;43.240;27.880;2022-12-20T07:00:53;102312.75;;;-0.09;100.00
56270;BME280;42176;43.240;27.880;2022-12-20T07:03:18;102318.38;;;-0.63;98.14
56270;BME280;42176;43.240;27.880;2022-12-20T07:05:53;102309.38;;;-0.38;99.97
56270;BME280;42176;43.240;27.880;2022-12-20T07:08:20;102292.47;;;0.50;96.62
56270;BME280;42176;43.240;27.880;2022-12-20T07:10:48;102296.59;;;2.19;86.55
56270;BME280;42176;43.240;27.880;2022-12-20T07:13:13;102275.16;;;2.85;78.92
56270;BME280;42176;43.240;27.880;2022-12-20T07:15:39;102278.03;;;1.77;81.66
56270;BME280;42176;43.240;27.880;2022-12-20T07:18:05;102291.53;;;1.32;84.87
56270;BME280;42176;43.240;27.880;2022-12-20T07:20:31;102300.66;;;2.89;80.18
56270;BME280;42176;43.240;27.880;2022-12-20T07:22:57;102294.59;;;4.18;72.52
56270;BME280;42176;43.240;27.880;2022-12-20T07:25:22;102291.97;;;4.89;66.98
56270;BME280;42176;43.240;27.880;2022-12-20T07:27:48;102268.84;;;5.30;62.78
56270;BME280;42176;43.240;27.880;2022-12-20T07:30:15;102257.88;;;5.70;60.41
56270;BME280;42176;43.240;27.880;2022-12-20T07:32:40;102287.09;;;6.05;58.32
56270;BME280;42176;43.240;27.880;2022-12-20T07:35:06;102260.56;;;3.98;64.99
56270;BME280;42176;43.240;27.880;2022-12-20T07:37:32;102264.28;;;2.76;73.65
56270;BME280;42176;43.240;27.880;2022-12-20T07:39:57;102268.53;;;2.94;77.26
56270;BME280;42176;43.240;27.880;2022-12-20T07:42:23;102245.97;;;4.28;69.80
56270;BME280;42176;43.240;27.880;2022-12-20T07:44:48;102243.94;;;5.19;64.94
56270;BME280;42176;43.240;27.880;2022-12-20T07:47:14;102255.38;;;5.47;60.82
56270;BME280;42176;43.240;27.880;2022-12-20T07:49:39;102255.13;;;3.49;69.87
56270;BME280;42176;43.240;27.880;2022-12-20T07:52:07;102256.00;;;2.67;75.42
56270;BME280;42176;43.240;27.880;2022-12-20T07:54:37;102248.63;;;4.06;73.62
56270;BME280;42176;43.240;27.880;2022-12-20T07:57:22;102247.94;;;5.33;64.60
56270;BME280;42176;43.240;27.880;2022-12-20T07:59:51;102254.16;;;5.90;60.18
56270;BME280;42176;43.240;27.880;2022-12-20T08:02:23;102250.22;;;6.34;58.12
56270;BME280;42176;43.240;27.880;2022-12-20T08:04:52;102243.34;;;6.71;56.05
56270;BME280;42176;43.240;27.880;2022-12-20T08:07:18;102249.81;;;6.50;57.17
56270;BME280;42176;43.240;27.880;2022-12-20T08:09:45;102254.16;;;7.14;54.38
56270;BME280;42176;43.240;27.880;2022-12-20T08:12:13;102244.09;;;7.69;53.00
56270;BME280;42176;43.240;27.880;2022-12-20T08:14:40;102245.59;;;7.58;52.47
56270;BME280;42176;43.240;27.880;2022-12-20T08:17:06;102253.59;;;7.99;51.73
56270;BME280;42176;43.240;27.880;2022-12-20T08:19:31;102231.97;;;7.41;52.10
56270;BME280;42176;43.240;27.880;2022-12-20T08:21:57;102232.50;;;7.26;52.77
56270;BME280;42176;43.240;27.880;2022-12-20T08:24:23;102238.25;;;7.44;53.67
56270;BME280;42176;43.240;27.880;2022-12-20T08:26:48;102237.84;;;7.29;53.41
56270;BME280;42176;43.240;27.880;2022-12-20T08:29:14;102235.91;;;7.22;53.25
56270;BME280;42176;43.240;27.880;2022-12-20T08:31:40;102240.88;;;6.76;54.88
56270;BME280;42176;43.240;27.880;2022-12-20T08:34:09;102243.47;;;3.41;68.15
56270;BME280;42176;43.240;27.880;2022-12-20T08:36:35;102237.00;;;1.76;79.95
56270;BME280;42176;43.240;27.880;2022-12-20T08:39:04;102230.72;;;1.90;85.06
56270;BME280;42176;43.240;27.880;2022-12-20T08:41:30;102237.19;;;2.36;83.26
56270;BME280;42176;43.240;27.880;2022-12-20T08:43:56;102226.84;;;2.20;82.14
56270;BME280;42176;43.240;27.880;2022-12-20T08:46:21;102231.19;;;1.45;87.31
56270;BME280;42176;43.240;27.880;2022-12-20T08:48:47;102212.50;;;1.74;88.16
56270;BME280;42176;43.240;27.880;2022-12-20T08:51:13;102214.38;;;2.14;85.86
56270;BME280;42176;43.240;27.880;2022-12-20T08:53:38;102215.53;;;2.01;84.83
56270;BME280;42176;43.240;27.880;2022-12-20T08:56:07;102211.84;;;1.24;89.24
56270;BME280;42176;43.240;27.880;2022-12-20T08:58:34;102210.19;;;1.44;92.15
56270;BME280;42176;43.240;27.880;2022-12-20T09:01:00;102201.78;;;1.87;89.33
56270;BME280;42176;43.240;27.880;2022-12-20T09:03:29;102192.97;;;2.23;87.67
56270;BME280;42176;43.240;27.880;2022-12-20T09:05:56;102187.53;;;2.38;85.46
56270;BME280;42176;43.240;27.880;2022-12-20T09:08:22;102174.44;;;1.61;89.21
56270;BME280;42176;43.240;27.880;2022-12-20T09:10:47;102183.47;;;1.49;91.93
56270;BME280;42176;43.240;27.880;2022-12-20T09:13:12;102166.72;;;2.02;90.28
56270;BME280;42176;43.240;27.880;2022-12-20T09:15:38;102166.72;;;2.41;87.52
56270;BME280;42176;43.240;27.880;2022-12-20T09:18:04;102154.91;;;2.92;84.78
56270;BME280;42176;43.240;27.880;2022-12-20T09:20:30;102157.50;;;2.10;87.68
56270;BME280;42176;43.240;27.880;2022-12-20T09:22:58;102177.16;;;1.82;91.37
56270;BME280;42176;43.240;27.880;2022-12-20T09:25:24;102184.75;;;2.54;91.74
56270;BME280;42176;43.240;27.880;2022-12-20T09:27:50;102165.13;;;3.07;88.20
56270;BME280;42176;43.240;27.880;2022-12-20T09:30:15;102170.13;;;3.44;85.00
56270;BME280;42176;43.240;27.880;2022-12-20T09:32:41;102138.22;;;3.55;83.29
56270;BME280;42176;43.240;27.880;2022-12-20T09:35:07;102166.88;;;3.95;81.60
56270;BME280;42176;43.240;27.880;2022-12-20T09:37:32;102161.88;;;4.26;80.04
56270;BME280;42176;43.240;27.880;2022-12-20T09:39:57;102144.13;;;4.43;79.43
56270;BME280;42176;43.240;27.880;2022-12-20T09:42:27;102138.53;;;4.60;78.81
56270;BME280;42176;43.240;27.880;2022-12-20T09:45:27;102114.53;;;4.75;77.65
56270;BME280;42176;43.240;27.880;2022-12-20T09:47:53;102144.00;;;4.92;76.71
56270;BME280;42176;43.240;27.880;2022-12-20T09:50:20;102147.63;;;4.69;75.88
56270;BME280;42176;43.240;27.880;2022-12-20T09:53:11;102147.69;;;3.07;85.41
56270;BME280;42176;43.240;27.880;2022-12-20T09:55:49;102152.28;;;1.72;92.78
56270;BME280;42176;43.240;27.880;2022-12-20T10:01:21;102123.38;;;4.77;78.15
56270;BME280;42176;43.240;27.880;2022-12-20T10:03:48;102126.53;;;2.81;87.52
56270;BME280;42176;43.240;27.880;2022-12-20T10:06:46;102123.44;;;3.57;89.62
56270;BME280;42176;43.240;27.880;2022-12-20T10:17:13;102106.59;;;5.00;77.36
56270;BME280;42176;43.240;27.880;2022-12-20T10:25:32;102098.59;;;5.52;74.75
56270;BME280;42176;43.240;27.880;2022-12-20T10:28:08;102111.03;;;5.58;74.92
56270;BME280;42176;43.240;27.880;2022-12-20T10:30:35;102091.75;;;5.57;74.58
56270;BME280;42176;43.240;27.880;2022-12-20T10:33:01;102090.56;;;5.78;73.75
56270;BME280;42176;43.240;27.880;2022-12-20T10:35:37;102078.44;;;5.83;73.35
56270;BME280;42176;43.240;27.880;2022-12-20T10:38:09;102081.16;;;5.56;74.05
56270;BME280;42176;43.240;27.880;2022-12-20T10:40:42;102082.59;;;5.46;74.57
56270;BME280;42176;43.240;27.880;2022-12-20T10:43:20;102074.75;;;5.76;74.42
56270;BME280;42176;43.240;27.880;2022-12-20T10:46:06;102072.56;;;5.32;74.79
56270;BME280;42176;43.240;27.880;2022-12-20T10:48:34;102061.38;;;4.56;78.22
56270;BME280;42176;43.240;27.880;2022-12-20T10:53:57;102058.19;;;3.42;90.71
56270;BME280;42176;43.240;27.880;2022-12-20T10:56:26;102057.97;;;4.08;86.80
56270;BME280;42176;43.240;27.880;2022-12-20T10:58:59;102056.00;;;4.53;83.77
56270;BME280;42176;43.240;27.880;2022-12-20T11:01:32;102048.41;;;4.88;81.88
56270;BME280;42176;43.240;27.880;2022-12-20T11:04:04;102049.94;;;5.09;80.55
56270;BME280;42176;43.240;27.880;2022-12-20T11:06:50;102045.53;;;4.80;80.55
56270;BME280;42176;43.240;27.880;2022-12-20T11:12:05;102029.78;;;5.38;79.01
56270;BME280;42176;43.240;27.880;2022-12-20T11:14:33;102036.53;;;5.59;77.59
56270;BME280;42176;43.240;27.880;2022-12-20T11:17:13;102027.06;;;5.06;77.62
56270;BME280;42176;43.240;27.880;2022-12-20T11:25:16;102012.75;;;4.16;86.58
56270;BME280;42176;43.240;27.880;2022-12-20T11:30:42;102001.88;;;4.05;84.81
56270;BME280;42176;43.240;27.880;2022-12-20T11:36:02;101996.22;;;4.18;87.23
56270;BME280;42176;43.240;27.880;2022-12-20T11:41:31;101980.69;;;4.79;84.08
56270;BME280;42176;43.240;27.880;2022-12-20T11:46:50;101979.94;;;5.12;81.32
56270;BME280;42176;43.240;27.880;2022-12-20T11:57:35;101952.13;;;5.85;78.46
56270;BME280;42176;43.240;27.880;2022-12-20T12:00:04;101949.06;;;6.00;77.59
56270;BME280;42176;43.240;27.880;2022-12-20T12:02:36;101948.69;;;6.19;76.38
56270;BME280;42176;43.240;27.880;2022-12-20T12:05:17;101939.25;;;5.95;75.43
56270;BME280;42176;43.240;27.880;2022-12-20T12:07:49;101943.19;;;6.10;75.57
56270;BME280;42176;43.240;27.880;2022-12-20T12:18:24;101945.72;;;3.49;87.72
56270;BME280;42176;43.240;27.880;2022-12-20T12:23:47;101944.41;;;3.87;91.79
56270;BME280;42176;43.240;27.880;2022-12-20T12:26:28;101938.00;;;4.32;89.21
56270;BME280;42176;43.240;27.880;2022-12-20T12:28:59;101939.06;;;4.64;86.28
56270;BME280;42176;43.240;27.880;2022-12-20T12:45:14;101928.63;;;3.61;94.08
56270;BME280;42176;43.240;27.880;2022-12-20T12:47:48;101926.47;;;3.99;91.24
56270;BME280;42176;43.240;27.880;2022-12-20T12:50:25;101919.25;;;4.19;88.10
56270;BME280;42176;43.240;27.880;2022-12-20T12:52:57;101923.47;;;3.38;92.11
56270;BME280;42176;43.240;27.880;2022-12-20T12:58:12;101930.09;;;3.53;94.58
56270;BME280;42176;43.240;27.880;2022-12-20T13:03:36;101915.38;;;3.32;93.24
56270;BME280;42176;43.240;27.880;2022-12-20T13:11:37;101918.06;;;4.37;88.81
56270;BME280;42176;43.240;27.880;2022-12-20T13:16:52;101911.28;;;4.72;86.60
56270;BME280;42176;43.240;27.880;2022-12-20T13:21:45;101914.25;;;3.75;88.66
56270;BME280;42176;43.240;27.880;2022-12-20T13:27:14;101920.41;;;3.50;95.55
56270;BME280;42176;43.240;27.880;2022-12-20T13:30:22;101920.34;;;3.74;94.20
56270;BME280;42176;43.240;27.880;2022-12-20T13:32:52;101915.09;;;3.74;91.09
56270;BME280;42176;43.240;27.880;2022-12-20T13:38:01;101921.72;;;3.14;97.82
56270;BME280;42176;43.240;27.880;2022-12-20T13:40:41;101909.78;;;3.71;95.03
56270;BME280;42176;43.240;27.880;2022-12-20T13:51:15;101900.41;;;3.54;95.85
56270;BME280;42176;43.240;27.880;2022-12-20T13:54:33;101897.00;;;3.82;93.66
56270;BME280;42176;43.240;27.880;2022-12-20T13:56:47;101881.00;;;4.00;91.67
56270;BME280;42176;43.240;27.880;2022-12-20T13:59:24;101891.91;;;4.13;90.87
56270;BME280;42176;43.240;27.880;2022-12-20T14:01:55;101878.72;;;3.84;90.09
56270;BME280;42176;43.240;27.880;2022-12-20T14:04:24;101884.38;;;2.96;96.13
56270;BME280;42176;43.240;27.880;2022-12-20T14:07:00;101887.97;;;2.75;100.00
56270;BME280;42176;43.240;27.880;2022-12-20T14:11:51;101866.97;;;2.98;97.14
56270;BME280;42176;43.240;27.880;2022-12-20T14:14:17;101876.78;;;2.79;100.00
56270;BME280;42176;43.240;27.880;2022-12-20T14:16:42;101867.31;;;3.07;100.00
56270;BME280;42176;43.240;27.880;2022-12-20T14:19:13;101860.50;;;3.12;99.34
56270;BME280;42176;43.240;27.880;2022-12-20T14:21:42;101856.16;;;3.37;97.44
56270;BME280;42176;43.240;27.880;2022-12-20T14:24:16;101855.00;;;3.55;96.33
56270;BME280;42176;43.240;27.880;2022-12-20T14:26:46;101846.56;;;3.13;94.71
56270;BME280;42176;43.240;27.880;2022-12-20T14:29:18;101854.03;;;2.33;100.00
56270;BME280;42176;43.240;27.880;2022-12-20T14:31:46;101855.81;;;2.34;100.00
56270;BME280;42176;43.240;27.880;2022-12-20T14:34:29;101846.63;;;2.91;100.00
56270;BME280;42176;43.240;27.880;2022-12-20T14:37:32;101849.34;;;2.24;100.00
56270;BME280;42176;43.240;27.880;2022-12-20T14:40:18;101831.19;;;2.28;100.00
56270;BME280;42176;43.240;27.880;2022-12-20T14:42:45;101831.25;;;2.53;100.00
56270;BME280;42176;43.240;27.880;2022-12-20T14:47:55;101841.19;;;2.16;100.00
56270;BME280;42176;43.240;27.880;2022-12-20T14:50:26;101834.03;;;2.12;100.00
56270;BME280;42176;43.240;27.880;2022-12-20T14:52:52;101837.19;;;2.26;100.00